sensor_id;sensor_type;location;lat;lon;timestamp;temperature;humidity
12746;DHT22;6437;53.686;10.030;2023-01-26T00:01:58;0.80;99.90
12746;DHT22;6437;53.686;10.030;2023-01-26T00:05:00;0.80;99.90
12746;DHT22;6437;53.686;10.030;2023-01-26T00:08:02;0.80;99.90
12746;DHT22;6437;53.686;10.030;2023-01-26T00:11:04;0.80;99.90
12746;DHT22;6437;53.686;10.030;2023-01-26T00:14:07;0.80;99.90
12746;DHT22;6437;53.686;10.030;2023-01-26T00:17:09;0.80;99.90
12746;DHT22;6437;53.686;10.030;2023-01-26T00:20:11;0.70;99.90
12746;DHT22;6437;53.686;10.030;2023-01-26T00:23:13;0.70;99.90
12746;DHT22;6437;53.686;10.030;2023-01-26T00:26:19;0.70;99.90
12746;DHT22;6437;53.686;10.030;2023-01-26T00:29:22;0.70;99.90
12746;DHT22;6437;53.686;10.030;2023-01-26T00:32:24;0.80;99.90
12746;DHT22;6437;53.686;10.030;2023-01-26T00:35:26;0.20;99.90
12746;DHT22;6437;53.686;10.030;2023-01-26T00:38:28;0.70;99.90
12746;DHT22;6437;53.686;10.030;2023-01-26T00:41:29;0.70;99.90
12746;DHT22;6437;53.686;10.030;2023-01-26T00:44:50;1.10;99.90
12746;DHT22;6437;53.686;10.030;2023-01-26T00:47:52;0.70;99.90
12746;DHT22;6437;53.686;10.030;2023-01-26T00:50:53;0.70;99.90
12746;DHT22;6437;53.686;10.030;2023-01-26T00:53:55;0.70;99.90
12746;DHT22;6437;53.686;10.030;2023-01-26T00:56:57;0.70;99.90
12746;DHT22;6437;53.686;10.030;2023-01-26T01:00:00;0.70;99.90
12746;DHT22;6437;53.686;10.030;2023-01-26T01:03:02;0.70;99.90
12746;DHT22;6437;53.686;10.030;2023-01-26T01:06:04;0.60;99.90
12746;DHT22;6437;53.686;10.030;2023-01-26T01:09:06;0.70;99.90
12746;DHT22;6437;53.686;10.030;2023-01-26T01:12:08;0.70;99.90
12746;DHT22;6437;53.686;10.030;2023-01-26T01:15:12;1.30;99.90
12746;DHT22;6437;53.686;10.030;2023-01-26T01:18:13;1.30;99.90
12746;DHT22;6437;53.686;10.030;2023-01-26T01:21:16;0.60;99.90
12746;DHT22;6437;53.686;10.030;2023-01-26T01:24:18;0.60;99.90
12746;DHT22;6437;53.686;10.030;2023-01-26T01:27:19;0.60;99.90
12746;DHT22;6437;53.686;10.030;2023-01-26T01:30:23;0.60;99.90
12746;DHT22;6437;53.686;10.030;2023-01-26T01:33:25;0.60;99.90
12746;DHT22;6437;53.686;10.030;2023-01-26T01:36:26;0.60;99.90
12746;DHT22;6437;53.686;10.030;2023-01-26T01:39:28;0.50;99.90
12746;DHT22;6437;53.686;10.030;2023-01-26T01:42:32;0.60;99.90
12746;DHT22;6437;53.686;10.030;2023-01-26T01:45:42;0.10;99.90
12746;DHT22;6437;53.686;10.030;2023-01-26T01:48:49;0.50;99.90
12746;DHT22;6437;53.686;10.030;2023-01-26T01:51:55;0.50;99.90
12746;DHT22;6437;53.686;10.030;2023-01-26T01:55:01;0.50;99.90
12746;DHT22;6437;53.686;10.030;2023-01-26T01:58:07;0.50;99.90
12746;DHT22;6437;53.686;10.030;2023-01-26T02:01:11;0.60;99.90
12746;DHT22;6437;53.686;10.030;2023-01-26T02:04:13;0.50;99.90
12746;DHT22;6437;53.686;10.030;2023-01-26T02:07:15;0.50;99.90
12746;DHT22;6437;53.686;10.030;2023-01-26T02:10:18;0.50;99.90
12746;DHT22;6437;53.686;10.030;2023-01-26T02:13:21;0.50;99.90
12746;DHT22;6437;53.686;10.030;2023-01-26T02:16:25;0.50;99.90
12746;DHT22;6437;53.686;10.030;2023-01-26T02:19:31;0.50;99.90
12746;DHT22;6437;53.686;10.030;2023-01-26T02:22:44;0.50;99.90
12746;DHT22;6437;53.686;10.030;2023-01-26T02:26:00;0.50;99.90
12746;DHT22;6437;53.686;10.030;2023-01-26T02:29:03;0.50;99.90
12746;DHT22;6437;53.686;10.030;2023-01-26T02:32:06;0.50;99.90
12746;DHT22;6437;53.686;10.030;2023-01-26T02:35:09;0.50;99.90
12746;DHT22;6437;53.686;10.030;2023-01-26T02:38:10;0.60;99.90
12746;DHT22;6437;53.686;10.030;2023-01-26T02:41:15;0.60;99.90
12746;DHT22;6437;53.686;10.030;2023-01-26T02:44:38;1.20;99.90
12746;DHT22;6437;53.686;10.030;2023-01-26T02:47:40;0.60;99.90
12746;DHT22;6437;53.686;10.030;2023-01-26T02:50:44;0.60;99.90
12746;DHT22;6437;53.686;10.030;2023-01-26T02:53:44;0.70;99.90
12746;DHT22;6437;53.686;10.030;2023-01-26T02:56:48;1.20;99.90
12746;DHT22;6437;53.686;10.030;2023-01-26T02:59:48;0.70;99.90
12746;DHT22;6437;53.686;10.030;2023-01-26T03:02:52;0.70;99.90
12746;DHT22;6437;53.686;10.030;2023-01-26T03:05:54;0.70;99.90
12746;DHT22;6437;53.686;10.030;2023-01-26T03:08:55;0.70;99.90
12746;DHT22;6437;53.686;10.030;2023-01-26T03:11:58;0.70;99.90
12746;DHT22;6437;53.686;10.030;2023-01-26T03:15:00;0.70;99.90
12746;DHT22;6437;53.686;10.030;2023-01-26T03:18:21;0.70;99.90
12746;DHT22;6437;53.686;10.030;2023-01-26T03:21:40;0.70;99.90
12746;DHT22;6437;53.686;10.030;2023-01-26T03:25:00;0.70;99.90
12746;DHT22;6437;53.686;10.030;2023-01-26T03:28:20;0.70;99.90
12746;DHT22;6437;53.686;10.030;2023-01-26T03:31:22;0.80;99.90
12746;DHT22;6437;53.686;10.030;2023-01-26T03:34:24;0.80;99.90
12746;DHT22;6437;53.686;10.030;2023-01-26T03:37:26;0.80;99.90
12746;DHT22;6437;53.686;10.030;2023-01-26T03:40:36;0.80;99.90
12746;DHT22;6437;53.686;10.030;2023-01-26T03:43:57;0.80;99.90
12746;DHT22;6437;53.686;10.030;2023-01-26T03:47:16;0.80;99.90
12746;DHT22;6437;53.686;10.030;2023-01-26T03:50:35;0.80;99.90
12746;DHT22;6437;53.686;10.030;2023-01-26T03:53:54;0.80;99.90
12746;DHT22;6437;53.686;10.030;2023-01-26T03:57:14;0.80;99.90
12746;DHT22;6437;53.686;10.030;2023-01-26T04:00:18;0.80;99.90
12746;DHT22;6437;53.686;10.030;2023-01-26T04:03:20;0.80;99.90
12746;DHT22;6437;53.686;10.030;2023-01-26T04:06:42;0.80;99.90
12746;DHT22;6437;53.686;10.030;2023-01-26T04:10:02;0.80;99.90
12746;DHT22;6437;53.686;10.030;2023-01-26T04:13:03;0.80;99.90
12746;DHT22;6437;53.686;10.030;2023-01-26T04:16:24;0.80;99.90
12746;DHT22;6437;53.686;10.030;2023-01-26T04:19:43;0.90;99.90
12746;DHT22;6437;53.686;10.030;2023-01-26T04:23:02;0.90;99.90
12746;DHT22;6437;53.686;10.030;2023-01-26T04:26:04;0.90;99.90
12746;DHT22;6437;53.686;10.030;2023-01-26T04:29:08;0.90;99.90
12746;DHT22;6437;53.686;10.030;2023-01-26T04:32:11;0.90;99.90
12746;DHT22;6437;53.686;10.030;2023-01-26T04:35:13;0.90;99.90
12746;DHT22;6437;53.686;10.030;2023-01-26T04:38:14;1.00;99.90
12746;DHT22;6437;53.686;10.030;2023-01-26T04:41:17;1.00;99.90
12746;DHT22;6437;53.686;10.030;2023-01-26T04:44:18;0.80;99.90
12746;DHT22;6437;53.686;10.030;2023-01-26T04:47:21;1.00;99.90
12746;DHT22;6437;53.686;10.030;2023-01-26T04:50:23;0.90;99.90
12746;DHT22;6437;53.686;10.030;2023-01-26T04:53:25;0.90;99.90
12746;DHT22;6437;53.686;10.030;2023-01-26T04:56:29;0.90;99.90
12746;DHT22;6437;53.686;10.030;2023-01-26T04:59:31;0.90;99.90
12746;DHT22;6437;53.686;10.030;2023-01-26T05:02:34;0.90;99.90
12746;DHT22;6437;53.686;10.030;2023-01-26T05:05:37;1.00;99.90
12746;DHT22;6437;53.686;10.030;2023-01-26T05:08:39;1.00;99.90
12746;DHT22;6437;53.686;10.030;2023-01-26T05:11:40;1.00;99.90
12746;DHT22;6437;53.686;10.030;2023-01-26T05:14:42;1.00;99.90
12746;DHT22;6437;53.686;10.030;2023-01-26T05:17:45;1.00;99.90
12746;DHT22;6437;53.686;10.030;2023-01-26T05:20:48;1.00;99.90
12746;DHT22;6437;53.686;10.030;2023-01-26T05:23:50;1.00;99.90
12746;DHT22;6437;53.686;10.030;2023-01-26T05:26:51;1.00;99.90
12746;DHT22;6437;53.686;10.030;2023-01-26T05:30:14;0.90;99.90
12746;DHT22;6437;53.686;10.030;2023-01-26T05:33:17;1.00;99.90
12746;DHT22;6437;53.686;10.030;2023-01-26T05:36:21;1.00;99.90
12746;DHT22;6437;53.686;10.030;2023-01-26T05:39:23;1.00;99.90
12746;DHT22;6437;53.686;10.030;2023-01-26T05:42:25;1.00;99.90
12746;DHT22;6437;53.686;10.030;2023-01-26T05:45:27;1.20;99.90
12746;DHT22;6437;53.686;10.030;2023-01-26T05:48:30;1.00;99.90
12746;DHT22;6437;53.686;10.030;2023-01-26T05:51:32;1.00;99.90
12746;DHT22;6437;53.686;10.030;2023-01-26T05:54:33;1.10;99.90
12746;DHT22;6437;53.686;10.030;2023-01-26T05:57:35;1.10;99.90
12746;DHT22;6437;53.686;10.030;2023-01-26T06:00:37;1.10;99.90
12746;DHT22;6437;53.686;10.030;2023-01-26T06:03:40;1.10;99.90
12746;DHT22;6437;53.686;10.030;2023-01-26T06:06:41;1.10;99.90
12746;DHT22;6437;53.686;10.030;2023-01-26T06:09:43;1.10;99.90
12746;DHT22;6437;53.686;10.030;2023-01-26T06:12:45;1.10;99.90
12746;DHT22;6437;53.686;10.030;2023-01-26T06:15:47;1.10;99.90
12746;DHT22;6437;53.686;10.030;2023-01-26T06:18:50;1.10;99.90
12746;DHT22;6437;53.686;10.030;2023-01-26T06:21:52;1.10;99.90
12746;DHT22;6437;53.686;10.030;2023-01-26T06:24:54;1.10;99.90
12746;DHT22;6437;53.686;10.030;2023-01-26T06:27:56;0.90;99.90
12746;DHT22;6437;53.686;10.030;2023-01-26T06:30:58;1.10;99.90
12746;DHT22;6437;53.686;10.030;2023-01-26T06:34:02;1.20;99.90
12746;DHT22;6437;53.686;10.030;2023-01-26T06:37:05;1.20;99.90
12746;DHT22;6437;53.686;10.030;2023-01-26T06:40:08;1.10;99.90
12746;DHT22;6437;53.686;10.030;2023-01-26T06:43:10;1.20;99.90
12746;DHT22;6437;53.686;10.030;2023-01-26T06:46:12;1.20;99.90
12746;DHT22;6437;53.686;10.030;2023-01-26T06:49:15;1.20;99.90
12746;DHT22;6437;53.686;10.030;2023-01-26T06:52:29;1.20;99.90
12746;DHT22;6437;53.686;10.030;2023-01-26T06:55:35;1.20;99.90
12746;DHT22;6437;53.686;10.030;2023-01-26T06:58:37;1.20;99.90
12746;DHT22;6437;53.686;10.030;2023-01-26T07:01:41;1.20;99.90
12746;DHT22;6437;53.686;10.030;2023-01-26T07:04:45;1.20;99.90
12746;DHT22;6437;53.686;10.030;2023-01-26T07:07:47;1.20;99.90
12746;DHT22;6437;53.686;10.030;2023-01-26T07:10:48;1.20;99.90
12746;DHT22;6437;53.686;10.030;2023-01-26T07:13:51;1.20;99.90
12746;DHT22;6437;53.686;10.030;2023-01-26T07:16:53;1.20;99.90
12746;DHT22;6437;53.686;10.030;2023-01-26T07:19:56;1.20;99.90
12746;DHT22;6437;53.686;10.030;2023-01-26T07:22:58;1.20;99.90
12746;DHT22;6437;53.686;10.030;2023-01-26T07:26:00;1.20;99.90
12746;DHT22;6437;53.686;10.030;2023-01-26T07:29:02;1.20;99.90
12746;DHT22;6437;53.686;10.030;2023-01-26T07:32:03;1.30;99.90
12746;DHT22;6437;53.686;10.030;2023-01-26T07:35:07;1.40;99.90
12746;DHT22;6437;53.686;10.030;2023-01-26T07:38:09;1.30;99.90
12746;DHT22;6437;53.686;10.030;2023-01-26T07:41:12;1.30;99.90
12746;DHT22;6437;53.686;10.030;2023-01-26T07:44:13;1.30;99.90
12746;DHT22;6437;53.686;10.030;2023-01-26T07:47:15;1.30;99.90
12746;DHT22;6437;53.686;10.030;2023-01-26T07:50:20;1.30;99.90
12746;DHT22;6437;53.686;10.030;2023-01-26T07:53:22;1.30;99.90
12746;DHT22;6437;53.686;10.030;2023-01-26T07:56:25;1.40;99.90
12746;DHT22;6437;53.686;10.030;2023-01-26T07:59:27;1.40;99.90
12746;DHT22;6437;53.686;10.030;2023-01-26T08:02:29;1.30;99.90
12746;DHT22;6437;53.686;10.030;2023-01-26T08:05:32;1.40;99.90
12746;DHT22;6437;53.686;10.030;2023-01-26T08:08:35;1.00;99.90
12746;DHT22;6437;53.686;10.030;2023-01-26T08:11:39;1.40;99.90
12746;DHT22;6437;53.686;10.030;2023-01-26T08:14:41;1.40;99.90
12746;DHT22;6437;53.686;10.030;2023-01-26T08:17:42;1.40;99.90
12746;DHT22;6437;53.686;10.030;2023-01-26T08:20:50;1.50;99.90
12746;DHT22;6437;53.686;10.030;2023-01-26T08:23:52;1.50;99.90
12746;DHT22;6437;53.686;10.030;2023-01-26T08:26:55;1.50;99.90
12746;DHT22;6437;53.686;10.030;2023-01-26T08:29:56;1.50;99.90
12746;DHT22;6437;53.686;10.030;2023-01-26T08:32:59;1.50;99.90
12746;DHT22;6437;53.686;10.030;2023-01-26T08:36:03;1.60;99.90
12746;DHT22;6437;53.686;10.030;2023-01-26T08:39:05;1.60;99.90
12746;DHT22;6437;53.686;10.030;2023-01-26T08:42:07;1.60;99.90
12746;DHT22;6437;53.686;10.030;2023-01-26T08:45:10;1.60;99.90
12746;DHT22;6437;53.686;10.030;2023-01-26T08:48:11;1.60;99.90
12746;DHT22;6437;53.686;10.030;2023-01-26T08:51:14;1.60;99.90
12746;DHT22;6437;53.686;10.030;2023-01-26T08:54:16;1.60;99.90
12746;DHT22;6437;53.686;10.030;2023-01-26T08:57:18;1.60;99.90
12746;DHT22;6437;53.686;10.030;2023-01-26T09:00:22;1.60;99.90
12746;DHT22;6437;53.686;10.030;2023-01-26T09:03:24;1.60;99.90
12746;DHT22;6437;53.686;10.030;2023-01-26T09:06:27;1.60;99.90
12746;DHT22;6437;53.686;10.030;2023-01-26T09:09:30;1.70;99.90
12746;DHT22;6437;53.686;10.030;2023-01-26T09:12:31;1.70;99.90
12746;DHT22;6437;53.686;10.030;2023-01-26T09:15:33;1.70;99.90
12746;DHT22;6437;53.686;10.030;2023-01-26T09:18:37;1.70;99.90
12746;DHT22;6437;53.686;10.030;2023-01-26T09:21:40;1.70;99.90
12746;DHT22;6437;53.686;10.030;2023-01-26T09:24:42;1.70;99.90
12746;DHT22;6437;53.686;10.030;2023-01-26T09:27:44;1.70;99.90
12746;DHT22;6437;53.686;10.030;2023-01-26T09:30:45;1.70;99.90
12746;DHT22;6437;53.686;10.030;2023-01-26T09:33:48;1.70;99.90
12746;DHT22;6437;53.686;10.030;2023-01-26T09:36:51;1.70;99.90
12746;DHT22;6437;53.686;10.030;2023-01-26T09:39:53;1.70;99.90
12746;DHT22;6437;53.686;10.030;2023-01-26T09:43:00;1.70;99.90
12746;DHT22;6437;53.686;10.030;2023-01-26T09:46:15;1.70;99.90
12746;DHT22;6437;53.686;10.030;2023-01-26T09:49:22;1.80;99.90
12746;DHT22;6437;53.686;10.030;2023-01-26T09:52:27;1.80;99.90
12746;DHT22;6437;53.686;10.030;2023-01-26T09:55:31;1.80;99.90
12746;DHT22;6437;53.686;10.030;2023-01-26T09:58:36;1.80;99.90
12746;DHT22;6437;53.686;10.030;2023-01-26T10:01:42;1.90;99.90
12746;DHT22;6437;53.686;10.030;2023-01-26T10:04:49;1.70;99.90
12746;DHT22;6437;53.686;10.030;2023-01-26T10:07:57;2.00;99.90
12746;DHT22;6437;53.686;10.030;2023-01-26T10:11:01;2.00;99.90
12746;DHT22;6437;53.686;10.030;2023-01-26T10:14:10;2.00;99.90
12746;DHT22;6437;53.686;10.030;2023-01-26T10:17:16;2.00;99.90
12746;DHT22;6437;53.686;10.030;2023-01-26T10:20:26;2.00;99.90
12746;DHT22;6437;53.686;10.030;2023-01-26T10:23:31;1.30;99.90
12746;DHT22;6437;53.686;10.030;2023-01-26T10:26:33;2.10;99.90
12746;DHT22;6437;53.686;10.030;2023-01-26T10:29:35;2.10;99.90
12746;DHT22;6437;53.686;10.030;2023-01-26T10:32:37;2.10;99.90
12746;DHT22;6437;53.686;10.030;2023-01-26T10:35:40;2.10;99.90
12746;DHT22;6437;53.686;10.030;2023-01-26T10:38:44;2.20;99.90
12746;DHT22;6437;53.686;10.030;2023-01-26T10:41:56;2.20;99.90
12746;DHT22;6437;53.686;10.030;2023-01-26T10:44:58;2.20;99.90
12746;DHT22;6437;53.686;10.030;2023-01-26T10:48:05;2.20;99.90
12746;DHT22;6437;53.686;10.030;2023-01-26T10:51:18;2.20;99.90
12746;DHT22;6437;53.686;10.030;2023-01-26T10:54:26;2.20;99.90
12746;DHT22;6437;53.686;10.030;2023-01-26T10:57:29;2.20;99.90
12746;DHT22;6437;53.686;10.030;2023-01-26T11:00:33;2.30;99.90
12746;DHT22;6437;53.686;10.030;2023-01-26T11:03:35;2.30;99.90
12746;DHT22;6437;53.686;10.030;2023-01-26T11:06:38;1.60;99.90
12746;DHT22;6437;53.686;10.030;2023-01-26T11:09:41;2.30;99.90
12746;DHT22;6437;53.686;10.030;2023-01-26T11:12:43;2.40;99.90
12746;DHT22;6437;53.686;10.030;2023-01-26T11:15:46;2.40;99.90
12746;DHT22;6437;53.686;10.030;2023-01-26T11:18:54;2.40;99.90
12746;DHT22;6437;53.686;10.030;2023-01-26T11:22:02;2.40;99.90
12746;DHT22;6437;53.686;10.030;2023-01-26T11:25:14;2.40;99.90
12746;DHT22;6437;53.686;10.030;2023-01-26T11:28:31;2.40;99.90
12746;DHT22;6437;53.686;10.030;2023-01-26T11:31:43;2.50;99.90
12746;DHT22;6437;53.686;10.030;2023-01-26T11:34:56;2.40;99.90
12746;DHT22;6437;53.686;10.030;2023-01-26T11:38:11;2.40;99.90
12746;DHT22;6437;53.686;10.030;2023-01-26T11:41:35;2.50;99.90
12746;DHT22;6437;53.686;10.030;2023-01-26T11:44:58;2.50;99.90
12746;DHT22;6437;53.686;10.030;2023-01-26T11:48:07;2.50;99.90
12746;DHT22;6437;53.686;10.030;2023-01-26T11:51:19;2.50;99.90
12746;DHT22;6437;53.686;10.030;2023-01-26T11:54:41;2.50;99.90
12746;DHT22;6437;53.686;10.030;2023-01-26T11:57:58;2.50;99.90
12746;DHT22;6437;53.686;10.030;2023-01-26T12:01:07;2.60;99.90
12746;DHT22;6437;53.686;10.030;2023-01-26T12:04:16;2.60;99.90
12746;DHT22;6437;53.686;10.030;2023-01-26T12:07:21;2.60;99.90
12746;DHT22;6437;53.686;10.030;2023-01-26T12:10:31;2.70;99.90
12746;DHT22;6437;53.686;10.030;2023-01-26T12:13:37;2.70;99.90
12746;DHT22;6437;53.686;10.030;2023-01-26T12:16:53;2.70;99.90
12746;DHT22;6437;53.686;10.030;2023-01-26T12:20:02;2.80;99.90
12746;DHT22;6437;53.686;10.030;2023-01-26T12:23:12;2.80;99.90
12746;DHT22;6437;53.686;10.030;2023-01-26T12:26:31;2.80;99.90
12746;DHT22;6437;53.686;10.030;2023-01-26T12:29:42;2.30;99.90
12746;DHT22;6437;53.686;10.030;2023-01-26T12:32:47;2.90;99.90
12746;DHT22;6437;53.686;10.030;2023-01-26T12:36:16;2.90;99.90
12746;DHT22;6437;53.686;10.030;2023-01-26T12:39:28;2.90;99.90
12746;DHT22;6437;53.686;10.030;2023-01-26T12:42:41;2.90;99.90
12746;DHT22;6437;53.686;10.030;2023-01-26T12:45:48;2.90;99.90
12746;DHT22;6437;53.686;10.030;2023-01-26T12:48:52;3.40;99.90
12746;DHT22;6437;53.686;10.030;2023-01-26T12:52:00;3.00;99.90
12746;DHT22;6437;53.686;10.030;2023-01-26T12:55:11;3.00;99.90
12746;DHT22;6437;53.686;10.030;2023-01-26T12:58:20;3.00;99.90
12746;DHT22;6437;53.686;10.030;2023-01-26T13:01:26;3.00;99.90
12746;DHT22;6437;53.686;10.030;2023-01-26T13:04:38;3.10;99.90
12746;DHT22;6437;53.686;10.030;2023-01-26T13:07:40;3.10;99.90
12746;DHT22;6437;53.686;10.030;2023-01-26T13:10:44;3.10;99.90
12746;DHT22;6437;53.686;10.030;2023-01-26T13:13:53;3.10;99.90
12746;DHT22;6437;53.686;10.030;2023-01-26T13:16:57;3.20;99.90
12746;DHT22;6437;53.686;10.030;2023-01-26T13:20:23;3.20;99.90
12746;DHT22;6437;53.686;10.030;2023-01-26T13:23:43;3.30;99.90
12746;DHT22;6437;53.686;10.030;2023-01-26T13:26:46;3.30;99.90
12746;DHT22;6437;53.686;10.030;2023-01-26T13:29:51;3.30;99.90
12746;DHT22;6437;53.686;10.030;2023-01-26T13:33:03;3.30;99.90
12746;DHT22;6437;53.686;10.030;2023-01-26T13:36:14;3.30;99.90
12746;DHT22;6437;53.686;10.030;2023-01-26T13:39:23;3.30;99.90
12746;DHT22;6437;53.686;10.030;2023-01-26T13:42:34;3.30;99.90
12746;DHT22;6437;53.686;10.030;2023-01-26T13:45:41;3.30;99.90
12746;DHT22;6437;53.686;10.030;2023-01-26T13:48:48;3.40;99.90
12746;DHT22;6437;53.686;10.030;2023-01-26T13:51:50;3.40;99.90
12746;DHT22;6437;53.686;10.030;2023-01-26T13:54:53;3.40;99.90
12746;DHT22;6437;53.686;10.030;2023-01-26T13:58:09;3.40;99.90
12746;DHT22;6437;53.686;10.030;2023-01-26T14:01:13;3.40;99.90
12746;DHT22;6437;53.686;10.030;2023-01-26T14:04:19;3.40;99.90
12746;DHT22;6437;53.686;10.030;2023-01-26T14:07:25;3.40;99.90
12746;DHT22;6437;53.686;10.030;2023-01-26T14:10:27;3.40;99.90
12746;DHT22;6437;53.686;10.030;2023-01-26T14:13:31;3.50;99.90
12746;DHT22;6437;53.686;10.030;2023-01-26T14:16:35;3.50;99.90
12746;DHT22;6437;53.686;10.030;2023-01-26T14:19:40;3.50;99.90
12746;DHT22;6437;53.686;10.030;2023-01-26T14:22:42;3.50;99.90
12746;DHT22;6437;53.686;10.030;2023-01-26T14:25:46;3.50;99.90
12746;DHT22;6437;53.686;10.030;2023-01-26T14:28:49;3.50;99.90
12746;DHT22;6437;53.686;10.030;2023-01-26T14:31:53;3.50;99.90
12746;DHT22;6437;53.686;10.030;2023-01-26T14:34:58;3.50;99.90
12746;DHT22;6437;53.686;10.030;2023-01-26T14:38:14;3.50;99.90
12746;DHT22;6437;53.686;10.030;2023-01-26T14:41:20;3.50;99.90
12746;DHT22;6437;53.686;10.030;2023-01-26T14:44:24;3.50;99.90
12746;DHT22;6437;53.686;10.030;2023-01-26T14:47:28;3.50;99.90
12746;DHT22;6437;53.686;10.030;2023-01-26T14:50:34;3.50;99.90
12746;DHT22;6437;53.686;10.030;2023-01-26T14:53:37;3.60;99.90
12746;DHT22;6437;53.686;10.030;2023-01-26T14:56:39;3.60;99.90
12746;DHT22;6437;53.686;10.030;2023-01-26T14:59:41;3.60;99.90
12746;DHT22;6437;53.686;10.030;2023-01-26T15:02:46;3.60;99.90
12746;DHT22;6437;53.686;10.030;2023-01-26T15:06:03;3.80;99.90
12746;DHT22;6437;53.686;10.030;2023-01-26T15:09:19;3.60;99.90
12746;DHT22;6437;53.686;10.030;2023-01-26T15:12:21;3.60;99.90
12746;DHT22;6437;53.686;10.030;2023-01-26T15:15:26;3.60;99.90
12746;DHT22;6437;53.686;10.030;2023-01-26T15:18:30;3.60;99.90
12746;DHT22;6437;53.686;10.030;2023-01-26T15:21:35;3.60;99.90
12746;DHT22;6437;53.686;10.030;2023-01-26T15:24:39;3.70;99.90
12746;DHT22;6437;53.686;10.030;2023-01-26T15:27:41;3.70;99.90
12746;DHT22;6437;53.686;10.030;2023-01-26T15:30:47;3.70;99.90
12746;DHT22;6437;53.686;10.030;2023-01-26T15:33:50;3.70;99.90
12746;DHT22;6437;53.686;10.030;2023-01-26T15:36:54;3.70;99.90
12746;DHT22;6437;53.686;10.030;2023-01-26T15:39:58;3.70;99.90
12746;DHT22;6437;53.686;10.030;2023-01-26T15:43:12;3.70;99.90
12746;DHT22;6437;53.686;10.030;2023-01-26T15:46:14;3.70;99.90
12746;DHT22;6437;53.686;10.030;2023-01-26T15:49:16;3.70;99.90
12746;DHT22;6437;53.686;10.030;2023-01-26T15:52:22;3.70;99.90
12746;DHT22;6437;53.686;10.030;2023-01-26T15:55:26;3.70;99.90
12746;DHT22;6437;53.686;10.030;2023-01-26T15:58:29;3.50;99.90
12746;DHT22;6437;53.686;10.030;2023-01-26T16:01:34;3.70;99.90
12746;DHT22;6437;53.686;10.030;2023-01-26T16:04:36;3.70;99.90
12746;DHT22;6437;53.686;10.030;2023-01-26T16:07:39;3.70;99.90
12746;DHT22;6437;53.686;10.030;2023-01-26T16:10:41;3.70;99.90
12746;DHT22;6437;53.686;10.030;2023-01-26T16:13:43;4.00;99.90
12746;DHT22;6437;53.686;10.030;2023-01-26T16:16:45;3.70;99.90
12746;DHT22;6437;53.686;10.030;2023-01-26T16:19:47;3.70;99.90
12746;DHT22;6437;53.686;10.030;2023-01-26T16:22:50;3.10;99.90
12746;DHT22;6437;53.686;10.030;2023-01-26T16:25:52;3.80;99.90
12746;DHT22;6437;53.686;10.030;2023-01-26T16:28:54;3.80;99.90
12746;DHT22;6437;53.686;10.030;2023-01-26T16:31:56;3.80;99.90
12746;DHT22;6437;53.686;10.030;2023-01-26T16:34:57;3.80;99.90
12746;DHT22;6437;53.686;10.030;2023-01-26T16:38:02;3.80;99.90
12746;DHT22;6437;53.686;10.030;2023-01-26T16:41:13;3.80;99.90
12746;DHT22;6437;53.686;10.030;2023-01-26T16:44:15;4.00;99.90
12746;DHT22;6437;53.686;10.030;2023-01-26T16:47:19;3.80;99.90
12746;DHT22;6437;53.686;10.030;2023-01-26T16:50:21;3.80;99.90
12746;DHT22;6437;53.686;10.030;2023-01-26T16:53:27;3.80;99.90
12746;DHT22;6437;53.686;10.030;2023-01-26T16:56:30;3.90;99.90
12746;DHT22;6437;53.686;10.030;2023-01-26T16:59:32;3.90;99.90
12746;DHT22;6437;53.686;10.030;2023-01-26T17:02:35;3.90;99.90
12746;DHT22;6437;53.686;10.030;2023-01-26T17:05:37;3.90;99.90
12746;DHT22;6437;53.686;10.030;2023-01-26T17:08:40;3.90;99.90
12746;DHT22;6437;53.686;10.030;2023-01-26T17:11:42;3.90;99.90
12746;DHT22;6437;53.686;10.030;2023-01-26T17:14:44;3.90;99.90
12746;DHT22;6437;53.686;10.030;2023-01-26T17:17:47;3.90;99.90
12746;DHT22;6437;53.686;10.030;2023-01-26T17:20:49;4.00;99.90
12746;DHT22;6437;53.686;10.030;2023-01-26T17:23:54;4.00;99.90
12746;DHT22;6437;53.686;10.030;2023-01-26T17:26:56;4.00;99.90
12746;DHT22;6437;53.686;10.030;2023-01-26T17:29:58;4.00;99.90
12746;DHT22;6437;53.686;10.030;2023-01-26T17:33:00;4.00;99.90
12746;DHT22;6437;53.686;10.030;2023-01-26T17:36:03;4.00;99.90
12746;DHT22;6437;53.686;10.030;2023-01-26T17:39:08;4.00;99.90
12746;DHT22;6437;53.686;10.030;2023-01-26T17:42:10;4.00;99.90
12746;DHT22;6437;53.686;10.030;2023-01-26T17:45:12;4.00;99.90
12746;DHT22;6437;53.686;10.030;2023-01-26T17:48:13;4.00;99.90
12746;DHT22;6437;53.686;10.030;2023-01-26T17:51:18;4.10;99.90
12746;DHT22;6437;53.686;10.030;2023-01-26T17:54:21;4.10;99.90
12746;DHT22;6437;53.686;10.030;2023-01-26T17:57:23;4.00;99.90
12746;DHT22;6437;53.686;10.030;2023-01-26T18:00:25;4.10;99.90
12746;DHT22;6437;53.686;10.030;2023-01-26T18:03:27;4.10;99.90
12746;DHT22;6437;53.686;10.030;2023-01-26T18:06:29;4.10;99.90
12746;DHT22;6437;53.686;10.030;2023-01-26T18:09:32;4.10;99.90
12746;DHT22;6437;53.686;10.030;2023-01-26T18:12:34;4.10;99.90
12746;DHT22;6437;53.686;10.030;2023-01-26T18:15:37;4.10;99.90
12746;DHT22;6437;53.686;10.030;2023-01-26T18:18:39;4.10;99.90
12746;DHT22;6437;53.686;10.030;2023-01-26T18:21:40;4.10;99.90
12746;DHT22;6437;53.686;10.030;2023-01-26T18:24:44;4.10;99.90
12746;DHT22;6437;53.686;10.030;2023-01-26T18:27:45;4.10;99.90
12746;DHT22;6437;53.686;10.030;2023-01-26T18:30:47;4.10;99.90
12746;DHT22;6437;53.686;10.030;2023-01-26T18:33:49;4.10;99.90
12746;DHT22;6437;53.686;10.030;2023-01-26T18:36:51;4.40;99.90
12746;DHT22;6437;53.686;10.030;2023-01-26T18:39:54;4.20;99.90
12746;DHT22;6437;53.686;10.030;2023-01-26T18:42:56;4.20;99.90
12746;DHT22;6437;53.686;10.030;2023-01-26T18:46:00;4.20;99.90
12746;DHT22;6437;53.686;10.030;2023-01-26T18:49:02;3.60;99.90
12746;DHT22;6437;53.686;10.030;2023-01-26T18:52:04;4.20;99.90
12746;DHT22;6437;53.686;10.030;2023-01-26T18:55:08;4.20;99.90
12746;DHT22;6437;53.686;10.030;2023-01-26T18:58:10;4.20;99.90
12746;DHT22;6437;53.686;10.030;2023-01-26T19:01:13;4.20;99.90
12746;DHT22;6437;53.686;10.030;2023-01-26T19:04:16;4.20;99.90
12746;DHT22;6437;53.686;10.030;2023-01-26T19:07:17;4.20;99.90
12746;DHT22;6437;53.686;10.030;2023-01-26T19:10:23;4.30;99.90
12746;DHT22;6437;53.686;10.030;2023-01-26T19:13:25;4.30;99.90
12746;DHT22;6437;53.686;10.030;2023-01-26T19:16:28;4.30;99.90
12746;DHT22;6437;53.686;10.030;2023-01-26T19:19:30;4.30;99.90
12746;DHT22;6437;53.686;10.030;2023-01-26T19:22:31;4.30;99.90
12746;DHT22;6437;53.686;10.030;2023-01-26T19:25:36;4.30;99.90
12746;DHT22;6437;53.686;10.030;2023-01-26T19:28:38;4.30;99.90
12746;DHT22;6437;53.686;10.030;2023-01-26T19:31:41;4.30;99.90
12746;DHT22;6437;53.686;10.030;2023-01-26T19:34:43;4.30;99.90
12746;DHT22;6437;53.686;10.030;2023-01-26T19:37:44;4.30;99.90
12746;DHT22;6437;53.686;10.030;2023-01-26T19:40:49;4.40;99.90
12746;DHT22;6437;53.686;10.030;2023-01-26T19:43:51;4.50;99.90
12746;DHT22;6437;53.686;10.030;2023-01-26T19:46:53;4.40;99.90